Bowling Green St University, Ohio
Current Conditions -  °F | °C
As of 10:45 AM on Friday 19 Dec 2014 (Local Time) from KTDZ Reporting Station
Overcast Overcast  
Wind Chill: 23°   Ceiling: 1300
Heat Index: 30°   Visibility: 8mi
Dew Point: 25°   Wind: 7mph
Humidity: 82%   Direction: 80°E
Pressure: 30.28"   Gusts: NA
Location:  41.3748°N, 83.6515°W
Report Text: KTDZ 191545Z AUTO 08006KT 8SM BKN013 OVC018 M01/M04 A3028 RMK AO2 T10111039 TSNO
Loading
Personal Weather Stations






























Interactive Weather Map New forecast layout! Learn more

10-Day Weather Forecast

Advertisements
Track Severe Weather on mobile